Time;durP1;ratioP1;P1;durP2;ratioP2;P2;SDS_P1;SDS_P2;PMS_P1;PMS_P2;Temp;Humidity;BMP_temperature;BMP_pressure;BME280_temperature;BME280_humidity;BME280_pressure;Samples;Min_cycle;Max_cycle;Signal;HPM_P1;HPM_P2
2022/01/27 00:04:26;;;;;;;28.65;14.57;;;-0.80;99.90;;;;;;459861;258;27506;-68
2022/01/27 00:06:19;;;;;;;29.70;14.02;;;-0.80;99.90;;;;;;460315;258;28063;-68
2022/01/27 00:08:26;;;;;;;30.02;13.98;;;-0.80;99.90;;;;;;459851;258;28631;-68
2022/01/27 00:10:31;;;;;;;28.08;14.68;;;-0.80;99.90;;;;;;459887;258;27475;-68
2022/01/27 00:12:22;;;;;;;34.00;15.75;;;-0.90;99.90;;;;;;459882;258;27501;-68
2022/01/27 00:14:23;;;;;;;38.13;16.05;;;-1.00;99.90;;;;;;460330;258;27494;-68
2022/01/27 00:16:30;;;;;;;33.83;15.60;;;-0.90;99.90;;;;;;459851;258;27494;-68
2022/01/27 00:18:25;;;;;;;27.48;13.93;;;-0.90;99.90;;;;;;459536;258;28511;-68
2022/01/27 00:20:27;;;;;;;26.52;14.25;;;-0.90;99.90;;;;;;459886;258;29020;-68
2022/01/27 00:22:28;;;;;;;32.42;15.90;;;-0.90;99.90;;;;;;460349;258;27530;-68
2022/01/27 00:24:31;;;;;;;28.98;13.70;;;-0.90;99.90;;;;;;459860;258;27464;-69
2022/01/27 00:26:30;;;;;;;30.12;15.13;;;-0.90;99.90;;;;;;459855;258;27567;-68
2022/01/27 00:28:32;;;;;;;34.97;15.73;;;-0.90;99.90;;;;;;459865;258;27511;-68
2022/01/27 00:30:33;;;;;;;30.75;14.73;;;-0.90;99.90;;;;;;459827;258;27833;-68
2022/01/27 00:32:34;;;;;;;29.27;14.65;;;-1.00;99.90;;;;;;460337;258;27994;-68
2022/01/27 00:34:35;;;;;;;29.15;14.30;;;-1.00;99.90;;;;;;459864;258;27552;-68
2022/01/27 00:36:37;;;;;;;29.83;14.52;;;-1.00;99.90;;;;;;459870;258;27551;-68
2022/01/27 00:38:38;;;;;;;32.28;15.73;;;-1.00;99.90;;;;;;460338;258;27535;-68
2022/01/27 00:40:39;;;;;;;37.83;16.67;;;-1.10;99.90;;;;;;459893;258;27466;-69
2022/01/27 00:42:40;;;;;;;30.12;15.23;;;-1.20;99.90;;;;;;459866;258;27603;-68
2022/01/27 00:44:42;;;;;;;30.92;15.40;;;-1.20;99.90;;;;;;460335;258;28726;-68
2022/01/27 00:46:43;;;;;;;35.38;16.10;;;-1.10;99.90;;;;;;459887;258;29014;-68
2022/01/27 00:48:44;;;;;;;32.30;15.55;;;-1.20;99.90;;;;;;459897;258;27582;-68
2022/01/27 00:50:50;;;;;;;33.60;16.60;;;-1.20;99.90;;;;;;459868;258;27446;-68
2022/01/27 00:52:54;;;;;;;25.40;13.55;;;-1.20;99.90;;;;;;459833;258;27515;-69
2022/01/27 00:54:53;;;;;;;28.45;15.43;;;-1.10;99.90;;;;;;459845;258;27899;-68
2022/01/27 01:01:02;;;;;;;30.48;14.80;;;-1.10;99.90;;;;;;459870;258;27899;-68
2022/01/27 01:03:05;;;;;;;27.15;13.75;;;-1.10;99.90;;;;;;460305;258;27519;-68
2022/01/27 01:05:24;;;;;;;29.85;14.70;;;-1.10;99.90;;;;;;459780;258;27587;-68
2022/01/27 01:07:09;;;;;;;27.70;13.55;;;-1.00;99.90;;;;;;459963;258;27479;-68
2022/01/27 01:12:03;;;;;;;33.58;16.30;;;-1.00;99.90;;;;;;459904;258;29191;-68
2022/01/27 01:15:42;;;;;;;36.50;16.08;;;-1.00;99.90;;;;;;459905;258;27513;-68
2022/01/27 01:18:01;;;;;;;29.98;15.40;;;-1.00;99.90;;;;;;459872;258;27471;-68
2022/01/27 01:31:46;;;;;;;31.58;14.73;;;-0.90;99.90;;;;;;459861;258;27542;-68
2022/01/27 01:33:37;;;;;;;35.00;15.02;;;-1.00;99.90;;;;;;459914;258;27487;-68
2022/01/27 01:36:12;;;;;;;33.25;17.17;;;-1.10;99.90;;;;;;459881;258;27611;-68
2022/01/27 01:37:52;;;;;;;35.72;17.35;;;-1.10;99.90;;;;;;459938;258;27510;-68
2022/01/27 01:39:53;;;;;;;45.40;17.05;;;-1.10;99.90;;;;;;459872;258;27486;-68
2022/01/27 01:41:54;;;;;;;38.55;18.75;;;-1.10;99.90;;;;;;459871;258;27530;-68
2022/01/27 01:43:55;;;;;;;36.28;16.58;;;-1.20;99.90;;;;;;460358;258;27609;-68
2022/01/27 01:45:56;;;;;;;43.38;19.50;;;-1.10;99.90;;;;;;459878;258;29041;-68
2022/01/27 01:47:58;;;;;;;38.72;18.50;;;-1.10;99.90;;;;;;459854;258;27500;-68
2022/01/27 01:49:59;;;;;;;37.17;16.40;;;-1.10;99.90;;;;;;460323;258;27591;-68
2022/01/27 01:52:00;;;;;;;34.53;16.70;;;-1.10;99.90;;;;;;459878;258;27455;-68
2022/01/27 01:54:01;;;;;;;39.33;17.17;;;-1.10;99.90;;;;;;459881;258;27507;-68
2022/01/27 01:56:03;;;;;;;36.33;17.73;;;-1.10;99.90;;;;;;460342;258;27475;-68
2022/01/27 01:58:04;;;;;;;42.40;18.50;;;-1.10;99.90;;;;;;459857;258;28014;-68
2022/01/27 02:00:05;;;;;;;40.78;18.17;;;-1.10;99.90;;;;;;459916;258;28059;-68
2022/01/27 02:02:08;;;;;;;39.85;17.77;;;-1.00;99.90;;;;;;460343;258;27483;-68
2022/01/27 02:04:09;;;;;;;42.17;19.95;;;-1.00;99.90;;;;;;459879;258;27528;-68
2022/01/27 02:06:16;;;;;;;42.25;18.00;;;-1.10;99.90;;;;;;459848;258;27494;-68
2022/01/27 02:08:30;;;;;;;42.47;18.52;;;-1.00;99.90;;;;;;460316;258;27920;-68
2022/01/27 02:10:32;;;;;;;41.35;18.17;;;-1.00;99.90;;;;;;459950;258;27931;-68
2022/01/27 02:19:14;;;;;;;36.38;17.20;;;-1.00;99.90;;;;;;459851;258;27474;-67
2022/01/27 02:21:16;;;;;;;37.65;17.02;;;-1.00;99.90;;;;;;459879;258;27598;-68
2022/01/27 02:23:17;;;;;;;28.23;14.35;;;-1.00;99.90;;;;;;460346;258;28018;-68
2022/01/27 02:25:18;;;;;;;39.90;17.75;;;-0.90;99.90;;;;;;459877;258;29210;-68
2022/01/27 02:27:19;;;;;;;36.85;17.37;;;-1.00;99.90;;;;;;459829;254;27494;-68
2022/01/27 02:29:21;;;;;;;39.58;17.23;;;-1.00;99.90;;;;;;459883;258;27548;-68
2022/01/27 02:31:22;;;;;;;33.28;16.90;;;-1.00;99.90;;;;;;460343;258;27511;-69
2022/01/27 02:33:23;;;;;;;39.47;17.40;;;-1.00;99.90;;;;;;459875;258;27463;-68
2022/01/27 02:35:25;;;;;;;40.12;18.70;;;-1.00;99.90;;;;;;459855;258;28043;-68
2022/01/27 02:37:26;;;;;;;38.85;17.87;;;-1.00;99.90;;;;;;460343;258;28276;-68
2022/01/27 02:39:27;;;;;;;36.05;17.67;;;-1.00;99.90;;;;;;459884;258;27563;-68
2022/01/27 02:41:28;;;;;;;36.00;17.15;;;-1.00;99.90;;;;;;459871;258;27530;-68
2022/01/27 02:43:29;;;;;;;42.00;17.52;;;-1.00;99.90;;;;;;460326;258;27607;-68
2022/01/27 02:45:32;;;;;;;38.22;17.30;;;-1.00;99.90;;;;;;459864;258;27516;-68
2022/01/27 02:47:32;;;;;;;35.30;16.35;;;-1.00;99.90;;;;;;459869;258;27494;-68
2022/01/27 02:49:33;;;;;;;34.67;16.98;;;-1.10;99.90;;;;;;459884;258;28022;-68
2022/01/27 02:51:34;;;;;;;34.95;16.80;;;-1.10;99.90;;;;;;460335;258;27504;-68
2022/01/27 02:53:36;;;;;;;36.20;17.23;;;-1.00;99.90;;;;;;459873;258;27459;-69
2022/01/27 02:55:37;;;;;;;36.03;16.27;;;-1.00;99.90;;;;;;459874;258;27551;-68
2022/01/27 02:57:39;;;;;;;42.25;17.98;;;-1.00;99.90;;;;;;460326;258;27579;-68
2022/01/27 02:59:40;;;;;;;42.72;17.08;;;-1.00;99.90;;;;;;459871;258;27634;-67
2022/01/27 03:01:41;;;;;;;42.45;17.23;;;-1.00;99.90;;;;;;459852;258;28068;-68
2022/01/27 03:03:42;;;;;;;36.03;17.30;;;-1.00;99.90;;;;;;460321;258;28691;-68
2022/01/27 03:05:43;;;;;;;34.22;16.98;;;-0.90;99.90;;;;;;459886;258;27455;-68
2022/01/27 03:07:48;;;;;;;35.55;16.98;;;-1.00;99.90;;;;;;459872;258;27578;-68
2022/01/27 03:09:46;;;;;;;39.53;17.75;;;-1.00;99.90;;;;;;460309;258;27487;-68
2022/01/27 03:11:47;;;;;;;38.75;16.25;;;-1.00;99.90;;;;;;459882;258;27499;-68
2022/01/27 03:13:48;;;;;;;41.90;16.58;;;-1.00;99.90;;;;;;459873;258;28497;-68
2022/01/27 03:15:50;;;;;;;41.53;17.50;;;-1.00;99.90;;;;;;459891;258;28076;-68
2022/01/27 03:17:51;;;;;;;39.85;17.55;;;-1.00;99.90;;;;;;460337;258;27495;-68
2022/01/27 03:19:52;;;;;;;37.25;17.17;;;-1.00;99.90;;;;;;459851;258;27462;-68
2022/01/27 03:21:54;;;;;;;31.23;15.45;;;-1.00;99.90;;;;;;459879;258;27499;-68
2022/01/27 03:23:55;;;;;;;36.00;17.50;;;-1.00;99.90;;;;;;459883;258;27599;-68
2022/01/27 03:25:56;;;;;;;35.58;15.52;;;-1.00;99.90;;;;;;459882;258;27989;-68
2022/01/27 03:27:57;;;;;;;33.33;16.15;;;-1.20;99.90;;;;;;460161;254;29084;-68
2022/01/27 03:29:58;;;;;;;33.83;15.30;;;-1.20;99.90;;;;;;459844;258;27463;-68
2022/01/27 03:32:00;;;;;;;36.78;16.90;;;-1.10;99.90;;;;;;459865;258;27575;-68
2022/01/27 03:34:01;;;;;;;31.65;15.07;;;-1.10;99.90;;;;;;460340;258;27578;-69
2022/01/27 03:36:02;;;;;;;31.42;14.05;;;-1.00;99.90;;;;;;459856;258;27459;-69
2022/01/27 03:38:03;;;;;;;34.88;15.93;;;-1.00;99.90;;;;;;459847;258;27498;-68
2022/01/27 03:40:05;;;;;;;33.88;15.32;;;-1.10;99.90;;;;;;460321;258;28715;-68
2022/01/27 03:42:06;;;;;;;31.15;14.40;;;-1.00;99.90;;;;;;459882;258;27477;-68
2022/01/27 03:44:07;;;;;;;31.70;14.35;;;-1.00;99.90;;;;;;459879;258;27571;-68
2022/01/27 03:46:08;;;;;;;29.35;14.45;;;-1.00;99.90;;;;;;460350;258;27455;-69
2022/01/27 03:48:10;;;;;;;30.42;14.85;;;-1.00;99.90;;;;;;459856;258;27586;-68
2022/01/27 03:50:11;;;;;;;35.35;15.40;;;-1.00;99.90;;;;;;459886;258;27602;-68
2022/01/27 03:52:12;;;;;;;33.75;14.87;;;-1.00;99.90;;;;;;459877;258;27943;-68
2022/01/27 03:54:14;;;;;;;31.45;16.00;;;-1.00;99.90;;;;;;460331;258;29060;-68
2022/01/27 03:56:15;;;;;;;35.47;17.55;;;-1.10;99.90;;;;;;459893;258;27545;-68
2022/01/27 03:58:16;;;;;;;30.37;15.70;;;-1.00;99.90;;;;;;459868;258;27515;-68
2022/01/27 04:00:17;;;;;;;34.45;19.62;;;-1.00;99.90;;;;;;460369;258;27530;-69
2022/01/27 04:02:19;;;;;;;36.55;18.83;;;-1.00;99.90;;;;;;459885;258;27470;-68
2022/01/27 04:04:20;;;;;;;41.58;18.55;;;-1.00;99.90;;;;;;459852;258;27998;-68
2022/01/27 04:06:31;;;;;;;31.10;15.63;;;-1.10;99.90;;;;;;460315;258;28066;-68
2022/01/27 04:08:22;;;;;;;38.72;18.37;;;-1.10;99.90;;;;;;459886;258;27470;-68
2022/01/27 04:10:24;;;;;;;33.55;16.33;;;-1.10;99.90;;;;;;459866;258;27517;-68
2022/01/27 04:12:25;;;;;;;31.08;16.10;;;-1.10;99.90;;;;;;459863;258;27487;-68
2022/01/27 04:14:26;;;;;;;32.75;16.10;;;-1.00;99.90;;;;;;459859;258;27514;-68
2022/01/27 04:16:27;;;;;;;32.17;15.43;;;-1.00;99.90;;;;;;460333;258;28508;-68
2022/01/27 04:18:29;;;;;;;36.08;16.48;;;-1.00;99.90;;;;;;459852;258;27929;-68
2022/01/27 04:20:30;;;;;;;28.55;14.75;;;-1.00;99.90;;;;;;459867;258;27542;-68
2022/01/27 04:22:31;;;;;;;37.80;15.80;;;-1.00;99.90;;;;;;459870;258;27466;-68
2022/01/27 04:24:32;;;;;;;33.00;15.25;;;-1.00;99.90;;;;;;460303;258;27505;-68
2022/01/27 04:26:43;;;;;;;38.38;15.93;;;-1.10;99.90;;;;;;459896;258;27491;-68
2022/01/27 04:28:38;;;;;;;34.22;14.80;;;-1.10;99.90;;;;;;459543;258;27571;-68
2022/01/27 04:30:39;;;;;;;31.42;15.20;;;-1.10;99.90;;;;;;459870;258;27520;-68
2022/01/27 04:32:46;;;;;;;35.20;15.15;;;-1.10;99.90;;;;;;460329;258;27607;-69
2022/01/27 04:34:42;;;;;;;32.90;14.32;;;-1.10;99.90;;;;;;459848;258;27921;-68
2022/01/27 04:36:44;;;;;;;30.70;13.05;;;-1.00;99.90;;;;;;459843;258;27499;-68
2022/01/27 04:38:52;;;;;;;29.60;15.20;;;-1.00;99.90;;;;;;459858;258;27503;-68
2022/01/27 04:40:58;;;;;;;31.75;17.02;;;-1.00;99.90;;;;;;459598;258;27462;-68
2022/01/27 04:43:13;;;;;;;39.28;17.92;;;-1.00;99.90;;;;;;459903;258;27831;-68
2022/01/27 04:45:07;;;;;;;34.25;17.02;;;-1.10;99.90;;;;;;459888;258;27554;-68
2022/01/27 04:47:17;;;;;;;32.78;16.60;;;-1.10;99.90;;;;;;459891;258;28020;-68
2022/01/27 04:49:12;;;;;;;35.30;15.40;;;-1.10;99.90;;;;;;460338;258;28123;-68
2022/01/27 04:51:16;;;;;;;30.15;15.15;;;-1.10;99.90;;;;;;459875;258;27986;-68
2022/01/27 04:53:21;;;;;;;33.45;15.05;;;-1.00;99.90;;;;;;459847;258;27532;-68
2022/01/27 04:55:18;;;;;;;28.08;13.25;;;-1.00;99.90;;;;;;460357;258;27567;-68
2022/01/27 04:57:17;;;;;;;25.35;12.85;;;-1.10;99.90;;;;;;459858;258;27490;-68
2022/01/27 04:59:25;;;;;;;30.67;14.40;;;-1.10;99.90;;;;;;459859;258;27467;-68
2022/01/27 05:01:24;;;;;;;31.90;13.18;;;-1.10;99.90;;;;;;459530;258;28025;-68
2022/01/27 05:03:32;;;;;;;28.15;12.63;;;-1.00;99.90;;;;;;459878;258;29116;-68
2022/01/27 05:05:22;;;;;;;28.60;14.07;;;-1.00;99.90;;;;;;459901;258;27474;-68
2022/01/27 05:07:23;;;;;;;27.00;13.27;;;-1.00;99.90;;;;;;460312;258;27598;-68
2022/01/27 05:09:24;;;;;;;26.70;13.15;;;-1.00;99.90;;;;;;459870;258;27498;-68
2022/01/27 05:13:29;;;;;;;30.90;12.63;;;-0.90;99.90;;;;;;460364;258;27605;-68
2022/01/27 05:15:28;;;;;;;26.62;11.80;;;-1.00;99.90;;;;;;459893;258;27910;-68
2022/01/27 05:17:29;;;;;;;24.02;12.13;;;-1.00;99.90;;;;;;459887;258;27540;-68
2022/01/27 05:19:30;;;;;;;29.35;14.35;;;-1.00;99.90;;;;;;459861;258;27511;-68
2022/01/27 05:21:33;;;;;;;33.83;13.52;;;-1.00;99.90;;;;;;460337;258;27587;-68
2022/01/27 05:23:33;;;;;;;30.05;13.32;;;-1.00;99.90;;;;;;459873;258;27506;-68
2022/01/27 05:25:34;;;;;;;27.33;13.20;;;-1.00;99.90;;;;;;459893;258;27466;-68
2022/01/27 05:27:35;;;;;;;27.42;12.95;;;-0.90;99.90;;;;;;460319;258;27969;-68
2022/01/27 05:29:37;;;;;;;21.62;12.90;;;-0.90;99.90;;;;;;459857;258;27941;-68
2022/01/27 05:31:38;;;;;;;27.15;14.35;;;-0.90;99.90;;;;;;459896;258;27533;-68
2022/01/27 05:33:39;;;;;;;25.92;13.13;;;-0.90;99.90;;;;;;460339;258;27594;-68
2022/01/27 05:35:45;;;;;;;28.58;13.38;;;-0.90;99.90;;;;;;459862;258;27499;-69
2022/01/27 05:37:42;;;;;;;27.77;13.48;;;-0.90;99.90;;;;;;459837;258;27590;-68
2022/01/27 05:39:43;;;;;;;25.98;12.73;;;-0.90;99.90;;;;;;459864;258;28546;-68
2022/01/27 05:41:44;;;;;;;26.73;13.05;;;-0.90;99.90;;;;;;459884;258;28023;-68
2022/01/27 05:43:45;;;;;;;30.05;13.20;;;-0.90;99.90;;;;;;460343;258;27591;-68
2022/01/27 05:45:47;;;;;;;28.12;12.27;;;-0.80;99.90;;;;;;459883;258;27551;-68
2022/01/27 05:47:48;;;;;;;26.40;12.98;;;-0.90;99.90;;;;;;460327;258;27678;-68
2022/01/27 05:49:49;;;;;;;30.20;13.18;;;-0.80;99.90;;;;;;459900;258;27511;-68
2022/01/27 05:51:50;;;;;;;27.48;13.70;;;-0.80;99.90;;;;;;459857;258;27577;-68
2022/01/27 05:53:52;;;;;;;32.47;12.85;;;-0.80;99.90;;;;;;459863;258;28115;-69
2022/01/27 05:55:53;;;;;;;26.55;12.48;;;-0.80;99.90;;;;;;460340;258;27568;-68
2022/01/27 05:57:54;;;;;;;27.15;12.30;;;-0.80;99.90;;;;;;459856;258;27494;-68
2022/01/27 05:59:56;;;;;;;27.37;12.88;;;-0.70;99.90;;;;;;459892;258;27532;-68
2022/01/27 06:01:57;;;;;;;34.53;13.57;;;-0.70;99.90;;;;;;460337;258;27563;-68
2022/01/27 06:03:58;;;;;;;31.42;13.35;;;-0.80;99.90;;;;;;459877;258;27587;-69
2022/01/27 06:05:59;;;;;;;29.90;13.65;;;-0.80;99.90;;;;;;459859;258;28686;-68
2022/01/27 06:08:01;;;;;;;30.25;12.30;;;-0.70;99.90;;;;;;460358;258;27979;-68
2022/01/27 06:10:02;;;;;;;30.12;14.00;;;-0.80;99.90;;;;;;459881;258;27499;-69
2022/01/27 06:12:03;;;;;;;27.80;13.25;;;-0.80;99.90;;;;;;459852;258;27454;-68
2022/01/27 06:14:04;;;;;;;32.53;15.40;;;-0.70;99.90;;;;;;459846;258;27587;-68
2022/01/27 06:16:10;;;;;;;33.42;16.27;;;-0.80;99.90;;;;;;460337;257;27835;-68
2022/01/27 06:18:07;;;;;;;33.08;13.98;;;-0.80;99.90;;;;;;459904;258;27934;-68
2022/01/27 06:20:08;;;;;;;30.30;13.88;;;-0.70;99.90;;;;;;459864;258;28062;-68
2022/01/27 06:22:11;;;;;;;28.23;13.90;;;-0.70;99.90;;;;;;459862;258;27460;-68
2022/01/27 06:24:11;;;;;;;26.12;13.80;;;-0.80;99.90;;;;;;460321;258;27619;-68
2022/01/27 06:26:13;;;;;;;28.27;12.13;;;-0.70;99.90;;;;;;459890;258;27490;-68
2022/01/27 06:28:15;;;;;;;23.50;10.85;;;-0.70;99.90;;;;;;459886;258;27533;-68
2022/01/27 06:30:16;;;;;;;25.40;12.75;;;-0.70;99.90;;;;;;459878;258;28719;-68
2022/01/27 06:32:17;;;;;;;28.77;14.63;;;-0.70;99.90;;;;;;460357;258;29112;-69
2022/01/27 06:34:18;;;;;;;28.50;12.95;;;-0.70;99.90;;;;;;459895;258;27487;-68
2022/01/27 06:36:20;;;;;;;24.63;12.80;;;-0.70;99.90;;;;;;459884;258;27470;-69
2022/01/27 06:38:21;;;;;;;23.30;12.00;;;-0.80;99.90;;;;;;460355;258;27502;-69
2022/01/27 06:40:22;;;;;;;29.92;13.50;;;-0.70;99.90;;;;;;459890;258;27926;-68
2022/01/27 06:42:23;;;;;;;25.80;11.73;;;-0.80;99.90;;;;;;459892;258;27920;-68
2022/01/27 06:44:25;;;;;;;27.73;12.65;;;-0.70;99.90;;;;;;460330;258;29169;-68
2022/01/27 06:46:26;;;;;;;24.98;12.35;;;-0.70;99.90;;;;;;459863;258;27535;-69
2022/01/27 06:48:27;;;;;;;27.67;12.13;;;-0.70;99.90;;;;;;459823;258;27530;-68
2022/01/27 06:50:31;;;;;;;23.87;12.30;;;-0.70;99.90;;;;;;460337;258;27503;-68
2022/01/27 06:52:30;;;;;;;25.10;12.45;;;-0.70;99.90;;;;;;459846;258;27550;-68
2022/01/27 06:54:31;;;;;;;22.10;11.90;;;-0.70;99.90;;;;;;459859;258;27519;-68
2022/01/27 06:56:32;;;;;;;28.10;13.62;;;-0.70;99.90;;;;;;460320;258;27923;-68
2022/01/27 06:58:36;;;;;;;23.45;13.35;;;-0.70;99.90;;;;;;459860;258;27577;-68
2022/01/27 07:00:35;;;;;;;23.35;12.98;;;-0.70;99.90;;;;;;459858;258;27595;-68
2022/01/27 07:02:36;;;;;;;26.30;13.57;;;-0.70;99.90;;;;;;459847;258;27614;-68
2022/01/27 07:04:37;;;;;;;23.77;12.30;;;-0.70;99.90;;;;;;460310;258;27634;-68
2022/01/27 07:06:39;;;;;;;26.48;12.88;;;-0.70;99.90;;;;;;459859;258;27463;-68
2022/01/27 07:08:40;;;;;;;23.95;12.88;;;-0.70;99.90;;;;;;459870;258;27919;-68
2022/01/27 07:10:41;;;;;;;23.58;11.35;;;-0.70;99.90;;;;;;459876;258;28015;-68
2022/01/27 07:12:42;;;;;;;26.48;12.10;;;-0.80;99.90;;;;;;459860;258;27549;-68
2022/01/27 07:14:43;;;;;;;29.48;12.07;;;-0.70;99.90;;;;;;460321;258;27538;-68
2022/01/27 07:16:45;;;;;;;30.17;13.07;;;-0.70;99.90;;;;;;459849;258;27554;-68
2022/01/27 07:18:46;;;;;;;26.45;13.20;;;-0.70;99.90;;;;;;459888;258;27478;-68
2022/01/27 07:20:47;;;;;;;27.05;12.88;;;-0.80;99.90;;;;;;460316;258;27966;-68
2022/01/27 07:22:49;;;;;;;23.65;11.75;;;-0.80;99.90;;;;;;459857;258;29117;-68
2022/01/27 07:24:50;;;;;;;22.45;11.55;;;-0.80;99.90;;;;;;459855;258;27494;-68
2022/01/27 07:26:51;;;;;;;23.65;11.52;;;-0.80;99.90;;;;;;460353;258;27612;-68
2022/01/27 07:28:52;;;;;;;24.15;11.75;;;-0.70;99.90;;;;;;459873;258;27554;-68
2022/01/27 07:30:54;;;;;;;27.40;14.30;;;-0.70;99.90;;;;;;459850;258;27579;-68
2022/01/27 07:32:55;;;;;;;23.62;16.62;;;-0.70;99.90;;;;;;460321;258;27487;-68
2022/01/27 07:34:57;;;;;;;27.35;16.75;;;-0.80;99.90;;;;;;459853;258;27932;-68
2022/01/27 07:37:00;;;;;;;25.48;15.10;;;-0.80;99.90;;;;;;459851;258;27503;-68
2022/01/27 07:39:00;;;;;;;25.75;15.00;;;-0.70;99.90;;;;;;459852;258;27543;-68
2022/01/27 07:41:00;;;;;;;21.55;13.82;;;-0.70;99.90;;;;;;459827;258;27506;-69
2022/01/27 07:43:01;;;;;;;24.27;14.07;;;-0.70;99.90;;;;;;459874;258;27511;-68
2022/01/27 07:45:02;;;;;;;27.80;13.52;;;-0.70;99.90;;;;;;460331;258;27472;-68
2022/01/27 07:47:04;;;;;;;21.05;11.93;;;-0.70;99.90;;;;;;459876;258;27974;-68
2022/01/27 07:49:05;;;;;;;27.13;13.20;;;-0.80;99.90;;;;;;459837;258;27932;-69
2022/01/27 07:51:07;;;;;;;23.58;12.37;;;-0.80;99.90;;;;;;460319;258;27538;-68
2022/01/27 07:53:07;;;;;;;24.77;13.18;;;-0.80;99.90;;;;;;459854;258;27546;-68
2022/01/27 07:55:09;;;;;;;22.73;10.80;;;-0.80;99.90;;;;;;459879;258;27483;-69
2022/01/27 07:57:10;;;;;;;25.73;12.55;;;-0.80;99.90;;;;;;460334;258;27615;-69
2022/01/27 07:59:11;;;;;;;22.50;11.90;;;-0.80;99.90;;;;;;459860;258;27979;-68
2022/01/27 08:01:12;;;;;;;22.95;11.82;;;-0.80;99.90;;;;;;459856;258;28121;-68
2022/01/27 08:03:14;;;;;;;24.70;10.57;;;-0.80;99.90;;;;;;460316;258;27570;-68
2022/01/27 08:05:15;;;;;;;23.25;10.70;;;-0.80;99.90;;;;;;459872;258;27471;-68
2022/01/27 08:07:16;;;;;;;20.37;10.20;;;-0.80;99.90;;;;;;459872;258;27567;-68
2022/01/27 08:09:17;;;;;;;22.05;11.20;;;-0.80;99.90;;;;;;460334;258;27479;-68
2022/01/27 08:11:19;;;;;;;22.17;12.30;;;-0.80;99.90;;;;;;459861;258;28125;-68
2022/01/27 08:13:20;;;;;;;26.42;13.35;;;-0.80;99.90;;;;;;459839;258;29048;-68
2022/01/27 08:15:22;;;;;;;23.55;11.80;;;-0.80;99.90;;;;;;459867;258;27516;-68
2022/01/27 08:17:23;;;;;;;25.77;11.23;;;-0.80;99.90;;;;;;460308;257;27519;-68
2022/01/27 08:19:24;;;;;;;27.55;12.50;;;-0.80;99.90;;;;;;459828;258;27559;-68
2022/01/27 08:21:25;;;;;;;20.75;11.15;;;-0.80;99.90;;;;;;459858;258;27491;-68
2022/01/27 08:23:26;;;;;;;24.95;11.85;;;-0.80;99.90;;;;;;460345;257;27594;-68
2022/01/27 08:25:28;;;;;;;30.15;11.15;;;-0.80;99.90;;;;;;459860;258;27920;-68
2022/01/27 08:27:31;;;;;;;21.60;11.25;;;-0.80;99.90;;;;;;459859;258;27956;-68
2022/01/27 08:29:44;;;;;;;24.67;11.90;;;-0.80;99.90;;;;;;459868;258;27580;-68
2022/01/27 08:31:41;;;;;;;24.58;11.27;;;-0.80;99.90;;;;;;459204;258;27502;-68
2022/01/27 08:33:33;;;;;;;21.52;11.65;;;-0.80;99.90;;;;;;459895;258;27599;-68
2022/01/27 08:35:34;;;;;;;22.23;11.93;;;-0.80;99.90;;;;;;459841;258;27547;-68
2022/01/27 08:37:35;;;;;;;22.25;11.32;;;-0.70;99.90;;;;;;460307;258;28420;-68
2022/01/27 08:39:36;;;;;;;23.75;12.18;;;-0.80;99.90;;;;;;459878;258;28098;-68
2022/01/27 08:41:38;;;;;;;27.95;12.05;;;-0.70;99.90;;;;;;459697;258;27444;-68
2022/01/27 08:43:39;;;;;;;20.33;10.98;;;-0.70;99.90;;;;;;459706;258;27615;-68
2022/01/27 08:45:42;;;;;;;32.30;13.70;;;-0.70;99.90;;;;;;460136;258;27474;-68
2022/01/27 08:47:41;;;;;;;24.33;11.68;;;-0.80;99.90;;;;;;459643;258;27572;-68
2022/01/27 08:49:44;;;;;;;26.30;11.80;;;-0.70;99.90;;;;;;459802;258;28055;-68
2022/01/27 08:51:44;;;;;;;24.05;11.60;;;-0.80;99.90;;;;;;460318;258;29125;-68
2022/01/27 08:53:45;;;;;;;26.80;11.73;;;-0.80;99.90;;;;;;459861;258;27580;-68
2022/01/27 08:55:46;;;;;;;24.48;11.70;;;-0.80;99.90;;;;;;459869;258;27486;-68
2022/01/27 08:57:48;;;;;;;26.65;12.52;;;-0.80;99.90;;;;;;460383;258;27478;-68
2022/01/27 08:59:51;;;;;;;23.08;11.50;;;-0.80;99.90;;;;;;459922;258;27595;-69
2022/01/27 09:01:50;;;;;;;21.98;10.73;;;-0.80;99.90;;;;;;459844;258;27471;-68
2022/01/27 09:03:51;;;;;;;22.45;10.38;;;-0.80;99.90;;;;;;459865;258;28092;-68
2022/01/27 09:05:53;;;;;;;24.95;12.07;;;-0.70;99.90;;;;;;460345;258;27578;-69
2022/01/27 09:07:56;;;;;;;25.40;11.80;;;-0.70;99.90;;;;;;459899;258;27459;-68
2022/01/27 09:09:55;;;;;;;23.83;10.77;;;-0.70;99.90;;;;;;459882;258;27558;-68
2022/01/27 09:11:58;;;;;;;22.55;10.13;;;-0.70;99.90;;;;;;459859;258;27570;-68
2022/01/27 09:13:58;;;;;;;23.58;10.50;;;-0.70;99.90;;;;;;460296;258;27579;-69
2022/01/27 09:16:00;;;;;;;20.12;9.95;;;-0.70;99.90;;;;;;459894;258;27973;-68
2022/01/27 09:18:00;;;;;;;27.20;12.23;;;-0.60;99.90;;;;;;459845;258;29040;-68
2022/01/27 09:20:02;;;;;;;18.60;10.60;;;-0.60;99.90;;;;;;459863;258;27598;-68
2022/01/27 09:22:07;;;;;;;20.08;10.45;;;-0.60;99.90;;;;;;459836;258;27483;-69
2022/01/27 09:24:04;;;;;;;22.42;11.38;;;-0.60;99.90;;;;;;460327;258;27563;-68
2022/01/27 09:26:09;;;;;;;21.58;10.43;;;-0.70;99.90;;;;;;459854;258;27511;-68
2022/01/27 09:28:07;;;;;;;21.12;10.80;;;-0.70;99.90;;;;;;459877;258;28003;-68
2022/01/27 09:30:08;;;;;;;22.92;10.43;;;-0.70;99.90;;;;;;459888;258;27981;-68
2022/01/27 09:32:09;;;;;;;22.50;10.85;;;-0.70;99.90;;;;;;460309;258;27549;-68
2022/01/27 09:34:10;;;;;;;23.17;10.18;;;-0.70;99.90;;;;;;459900;258;27467;-68
2022/01/27 09:36:12;;;;;;;16.45;9.63;;;-0.70;99.90;;;;;;459885;258;27583;-68
2022/01/27 09:38:13;;;;;;;25.00;10.90;;;-0.60;99.90;;;;;;459881;258;27456;-68
2022/01/27 09:40:15;;;;;;;23.67;10.45;;;-0.70;99.90;;;;;;459873;258;27539;-68
2022/01/27 09:42:16;;;;;;;18.77;9.30;;;-0.80;99.90;;;;;;460307;258;28302;-68
2022/01/27 09:44:19;;;;;;;19.40;10.35;;;-0.70;99.90;;;;;;459879;258;29008;-68
2022/01/27 09:46:19;;;;;;;25.83;10.85;;;-0.60;99.90;;;;;;459851;258;27535;-68
2022/01/27 09:48:20;;;;;;;23.45;10.70;;;-0.70;99.90;;;;;;459875;258;27463;-68
2022/01/27 09:50:28;;;;;;;19.17;10.15;;;-0.60;99.90;;;;;;460310;258;27594;-68
2022/01/27 09:52:25;;;;;;;22.23;10.68;;;-0.70;99.90;;;;;;459901;258;27463;-68
2022/01/27 09:54:26;;;;;;;18.85;10.18;;;-0.70;99.90;;;;;;459886;258;27500;-68
2022/01/27 09:56:27;;;;;;;28.00;12.10;;;-0.70;99.90;;;;;;459887;258;27475;-68
2022/01/27 09:58:28;;;;;;;21.10;10.70;;;-0.70;99.90;;;;;;460333;258;27583;-68
2022/01/27 10:00:30;;;;;;;22.08;10.43;;;-0.70;99.90;;;;;;459862;258;28796;-68
2022/01/27 10:02:31;;;;;;;21.75;10.15;;;-0.60;99.90;;;;;;459873;258;27507;-68
2022/01/27 10:04:32;;;;;;;18.98;9.70;;;-0.60;99.90;;;;;;460345;254;27522;-68
2022/01/27 10:06:34;;;;;;;22.25;10.05;;;-0.60;99.90;;;;;;459869;258;27463;-68
2022/01/27 10:08:39;;;;;;;19.55;9.80;;;-0.60;99.90;;;;;;459861;258;27506;-68
2022/01/27 10:10:36;;;;;;;22.80;9.48;;;-0.60;99.90;;;;;;460312;258;28084;-68
2022/01/27 10:12:39;;;;;;;21.12;10.63;;;-0.60;99.90;;;;;;459873;258;28024;-69
2022/01/27 10:14:39;;;;;;;18.20;9.07;;;-0.60;99.90;;;;;;459877;258;28057;-68
2022/01/27 10:16:42;;;;;;;25.20;11.57;;;-0.70;99.90;;;;;;460313;258;27475;-68
2022/01/27 10:18:41;;;;;;;23.42;11.52;;;-0.70;99.90;;;;;;459846;258;27647;-68
2022/01/27 10:20:43;;;;;;;21.75;9.20;;;-0.60;99.90;;;;;;459877;258;27486;-68
2022/01/27 10:22:44;;;;;;;23.62;10.95;;;-0.60;99.90;;;;;;459850;258;27462;-68
2022/01/27 10:24:45;;;;;;;22.62;11.75;;;-0.60;99.90;;;;;;459879;258;27599;-68
2022/01/27 10:26:52;;;;;;;22.80;11.40;;;-0.60;99.90;;;;;;459855;258;28024;-68
2022/01/27 10:29:07;;;;;;;18.50;10.07;;;-0.60;99.90;;;;;;459878;258;27909;-68
2022/01/27 10:30:58;;;;;;;21.75;11.10;;;-0.60;99.90;;;;;;459877;258;27471;-68
2022/01/27 10:33:03;;;;;;;17.58;10.55;;;-0.60;99.90;;;;;;460338;258;27519;-68
2022/01/27 10:35:04;;;;;;;22.45;10.48;;;-0.60;99.90;;;;;;459859;258;27490;-68
2022/01/27 10:37:04;;;;;;;20.08;10.55;;;-0.60;99.90;;;;;;459858;258;28133;-68
2022/01/27 10:39:06;;;;;;;17.98;9.30;;;-0.50;99.90;;;;;;459869;258;27462;-68
2022/01/27 10:41:07;;;;;;;22.40;11.07;;;-0.50;99.90;;;;;;460332;258;27514;-68
2022/01/27 10:43:08;;;;;;;21.23;10.73;;;-0.50;99.90;;;;;;459865;258;27470;-68
2022/01/27 10:45:10;;;;;;;24.67;11.93;;;-0.60;99.90;;;;;;459848;258;27582;-68
2022/01/27 10:47:15;;;;;;;27.08;11.15;;;-0.50;99.90;;;;;;460365;258;27561;-68
2022/01/27 10:49:23;;;;;;;22.25;11.40;;;-0.50;99.90;;;;;;459889;258;27970;-68